sensor_id;sensor_type;location;lat;lon;timestamp;P1;durP1;ratioP1;P2;durP2;ratioP2
20101;SDS011;10210;52.284;9.892;2023-02-22T00:00:17;36.37;;;16.50;;
20101;SDS011;10210;52.284;9.892;2023-02-22T00:03:04;36.50;;;16.50;;
20101;SDS011;10210;52.284;9.892;2023-02-22T00:05:31;38.37;;;17.10;;
20101;SDS011;10210;52.284;9.892;2023-02-22T00:07:57;38.03;;;17.27;;
20101;SDS011;10210;52.284;9.892;2023-02-22T00:10:24;37.07;;;16.73;;
20101;SDS011;10210;52.284;9.892;2023-02-22T00:12:51;36.13;;;16.83;;
20101;SDS011;10210;52.284;9.892;2023-02-22T00:15:20;37.07;;;16.90;;
20101;SDS011;10210;52.284;9.892;2023-02-22T00:17:51;33.70;;;16.57;;
20101;SDS011;10210;52.284;9.892;2023-02-22T00:20:19;38.00;;;17.27;;
20101;SDS011;10210;52.284;9.892;2023-02-22T00:22:47;36.07;;;17.67;;
20101;SDS011;10210;52.284;9.892;2023-02-22T00:25:16;37.40;;;16.60;;
20101;SDS011;10210;52.284;9.892;2023-02-22T00:27:45;37.93;;;17.83;;
20101;SDS011;10210;52.284;9.892;2023-02-22T00:30:13;37.07;;;16.97;;
20101;SDS011;10210;52.284;9.892;2023-02-22T00:32:44;36.17;;;17.33;;
20101;SDS011;10210;52.284;9.892;2023-02-22T00:35:11;38.90;;;17.53;;
20101;SDS011;10210;52.284;9.892;2023-02-22T00:37:39;39.87;;;18.40;;
20101;SDS011;10210;52.284;9.892;2023-02-22T00:40:08;36.30;;;17.80;;
20101;SDS011;10210;52.284;9.892;2023-02-22T00:42:38;38.33;;;18.53;;
20101;SDS011;10210;52.284;9.892;2023-02-22T00:45:04;35.13;;;16.90;;
20101;SDS011;10210;52.284;9.892;2023-02-22T00:47:31;33.63;;;16.07;;
20101;SDS011;10210;52.284;9.892;2023-02-22T00:49:57;37.37;;;16.83;;
20101;SDS011;10210;52.284;9.892;2023-02-22T00:52:24;37.53;;;16.43;;
20101;SDS011;10210;52.284;9.892;2023-02-22T00:54:51;36.10;;;16.60;;
20101;SDS011;10210;52.284;9.892;2023-02-22T00:57:19;33.17;;;14.93;;
20101;SDS011;10210;52.284;9.892;2023-02-22T00:59:45;30.47;;;13.67;;
20101;SDS011;10210;52.284;9.892;2023-02-22T01:02:11;33.30;;;15.57;;
20101;SDS011;10210;52.284;9.892;2023-02-22T01:04:37;32.23;;;13.37;;
20101;SDS011;10210;52.284;9.892;2023-02-22T01:07:03;31.33;;;14.63;;
20101;SDS011;10210;52.284;9.892;2023-02-22T01:09:29;33.50;;;13.57;;
20101;SDS011;10210;52.284;9.892;2023-02-22T01:11:55;29.33;;;13.70;;
20101;SDS011;10210;52.284;9.892;2023-02-22T01:14:22;30.70;;;13.77;;
20101;SDS011;10210;52.284;9.892;2023-02-22T01:16:50;28.47;;;12.67;;
20101;SDS011;10210;52.284;9.892;2023-02-22T01:19:18;27.67;;;12.27;;
20101;SDS011;10210;52.284;9.892;2023-02-22T01:21:46;28.30;;;12.97;;
20101;SDS011;10210;52.284;9.892;2023-02-22T01:24:13;26.43;;;11.77;;
20101;SDS011;10210;52.284;9.892;2023-02-22T01:26:51;25.67;;;11.93;;
20101;SDS011;10210;52.284;9.892;2023-02-22T01:29:17;27.40;;;11.87;;
20101;SDS011;10210;52.284;9.892;2023-02-22T01:31:50;24.37;;;10.83;;
20101;SDS011;10210;52.284;9.892;2023-02-22T01:34:18;25.60;;;11.57;;
20101;SDS011;10210;52.284;9.892;2023-02-22T01:36:45;24.60;;;10.40;;
20101;SDS011;10210;52.284;9.892;2023-02-22T01:39:11;26.97;;;12.27;;
20101;SDS011;10210;52.284;9.892;2023-02-22T01:41:36;25.87;;;10.10;;
20101;SDS011;10210;52.284;9.892;2023-02-22T01:46:58;25.37;;;11.13;;
20101;SDS011;10210;52.284;9.892;2023-02-22T01:49:28;26.40;;;11.20;;
20101;SDS011;10210;52.284;9.892;2023-02-22T01:52:13;27.33;;;11.47;;
20101;SDS011;10210;52.284;9.892;2023-02-22T01:54:45;26.93;;;11.97;;
20101;SDS011;10210;52.284;9.892;2023-02-22T01:57:22;27.70;;;11.60;;
20101;SDS011;10210;52.284;9.892;2023-02-22T01:59:56;24.87;;;11.53;;
20101;SDS011;10210;52.284;9.892;2023-02-22T02:02:34;23.93;;;10.73;;
20101;SDS011;10210;52.284;9.892;2023-02-22T02:05:04;28.03;;;12.30;;
20101;SDS011;10210;52.284;9.892;2023-02-22T02:07:32;27.93;;;11.97;;
20101;SDS011;10210;52.284;9.892;2023-02-22T02:10:04;27.03;;;11.87;;
20101;SDS011;10210;52.284;9.892;2023-02-22T02:12:38;27.20;;;12.67;;
20101;SDS011;10210;52.284;9.892;2023-02-22T02:15:20;26.30;;;11.83;;
20101;SDS011;10210;52.284;9.892;2023-02-22T02:17:56;27.20;;;12.07;;
20101;SDS011;10210;52.284;9.892;2023-02-22T02:20:31;26.63;;;11.63;;
20101;SDS011;10210;52.284;9.892;2023-02-22T02:34:32;27.10;;;11.90;;
20101;SDS011;10210;52.284;9.892;2023-02-22T02:37:16;30.27;;;13.17;;
20101;SDS011;10210;52.284;9.892;2023-02-22T02:42:37;28.70;;;12.83;;
20101;SDS011;10210;52.284;9.892;2023-02-22T02:45:12;26.93;;;12.03;;
20101;SDS011;10210;52.284;9.892;2023-02-22T02:47:48;27.70;;;11.70;;
20101;SDS011;10210;52.284;9.892;2023-02-22T02:50:24;28.47;;;11.80;;
20101;SDS011;10210;52.284;9.892;2023-02-22T02:52:59;26.90;;;11.50;;
20101;SDS011;10210;52.284;9.892;2023-02-22T02:55:31;26.90;;;12.77;;
20101;SDS011;10210;52.284;9.892;2023-02-22T02:58:01;33.80;;;13.60;;
20101;SDS011;10210;52.284;9.892;2023-02-22T03:00:32;26.93;;;13.00;;
20101;SDS011;10210;52.284;9.892;2023-02-22T03:03:16;29.30;;;13.23;;
20101;SDS011;10210;52.284;9.892;2023-02-22T03:09:01;26.00;;;11.77;;
20101;SDS011;10210;52.284;9.892;2023-02-22T03:14:37;28.63;;;12.53;;
20101;SDS011;10210;52.284;9.892;2023-02-22T03:17:25;26.10;;;11.90;;
20101;SDS011;10210;52.284;9.892;2023-02-22T03:20:22;27.13;;;12.40;;
20101;SDS011;10210;52.284;9.892;2023-02-22T03:23:55;31.73;;;14.17;;
20101;SDS011;10210;52.284;9.892;2023-02-22T03:26:35;26.00;;;11.93;;
20101;SDS011;10210;52.284;9.892;2023-02-22T03:29:08;24.63;;;11.27;;
20101;SDS011;10210;52.284;9.892;2023-02-22T03:31:58;29.03;;;12.43;;
20101;SDS011;10210;52.284;9.892;2023-02-22T03:34:26;28.47;;;12.60;;
20101;SDS011;10210;52.284;9.892;2023-02-22T03:37:01;28.63;;;12.10;;
20101;SDS011;10210;52.284;9.892;2023-02-22T03:39:38;27.93;;;12.63;;
20101;SDS011;10210;52.284;9.892;2023-02-22T03:42:07;30.13;;;13.17;;
20101;SDS011;10210;52.284;9.892;2023-02-22T03:44:39;29.37;;;12.43;;
20101;SDS011;10210;52.284;9.892;2023-02-22T03:47:11;25.73;;;11.00;;
20101;SDS011;10210;52.284;9.892;2023-02-22T03:49:48;26.10;;;11.33;;
20101;SDS011;10210;52.284;9.892;2023-02-22T03:52:30;25.47;;;11.10;;
20101;SDS011;10210;52.284;9.892;2023-02-22T03:54:59;26.17;;;11.23;;
20101;SDS011;10210;52.284;9.892;2023-02-22T03:57:31;27.73;;;12.43;;
20101;SDS011;10210;52.284;9.892;2023-02-22T04:00:03;30.03;;;12.67;;
20101;SDS011;10210;52.284;9.892;2023-02-22T04:02:33;30.80;;;12.70;;
20101;SDS011;10210;52.284;9.892;2023-02-22T04:04:59;27.70;;;12.50;;
20101;SDS011;10210;52.284;9.892;2023-02-22T04:07:25;27.83;;;12.77;;
20101;SDS011;10210;52.284;9.892;2023-02-22T04:09:51;31.07;;;13.37;;
20101;SDS011;10210;52.284;9.892;2023-02-22T04:12:16;28.43;;;13.40;;
20101;SDS011;10210;52.284;9.892;2023-02-22T04:14:42;25.77;;;11.60;;
20101;SDS011;10210;52.284;9.892;2023-02-22T04:17:08;26.80;;;11.63;;
20101;SDS011;10210;52.284;9.892;2023-02-22T04:19:34;28.43;;;13.60;;
20101;SDS011;10210;52.284;9.892;2023-02-22T04:21:59;32.10;;;14.07;;
20101;SDS011;10210;52.284;9.892;2023-02-22T04:24:25;28.43;;;13.23;;
20101;SDS011;10210;52.284;9.892;2023-02-22T04:26:51;29.50;;;13.17;;
20101;SDS011;10210;52.284;9.892;2023-02-22T04:29:17;28.07;;;12.30;;
20101;SDS011;10210;52.284;9.892;2023-02-22T04:31:42;26.97;;;12.37;;
20101;SDS011;10210;52.284;9.892;2023-02-22T04:34:08;26.10;;;11.60;;
20101;SDS011;10210;52.284;9.892;2023-02-22T04:36:35;26.53;;;10.83;;
20101;SDS011;10210;52.284;9.892;2023-02-22T04:39:01;25.50;;;10.83;;
20101;SDS011;10210;52.284;9.892;2023-02-22T04:41:27;24.53;;;11.50;;
20101;SDS011;10210;52.284;9.892;2023-02-22T04:43:55;25.23;;;10.83;;
20101;SDS011;10210;52.284;9.892;2023-02-22T04:46:21;29.87;;;12.67;;
20101;SDS011;10210;52.284;9.892;2023-02-22T04:48:47;27.70;;;12.53;;
20101;SDS011;10210;52.284;9.892;2023-02-22T04:51:13;26.20;;;11.70;;
20101;SDS011;10210;52.284;9.892;2023-02-22T04:53:39;26.43;;;11.47;;
20101;SDS011;10210;52.284;9.892;2023-02-22T04:56:05;27.87;;;11.73;;
20101;SDS011;10210;52.284;9.892;2023-02-22T04:58:31;26.37;;;11.80;;
20101;SDS011;10210;52.284;9.892;2023-02-22T05:00:56;27.47;;;11.83;;
20101;SDS011;10210;52.284;9.892;2023-02-22T05:03:22;29.43;;;12.53;;
20101;SDS011;10210;52.284;9.892;2023-02-22T05:05:48;27.83;;;11.63;;
20101;SDS011;10210;52.284;9.892;2023-02-22T05:08:15;26.67;;;11.93;;
20101;SDS011;10210;52.284;9.892;2023-02-22T05:10:41;26.37;;;12.03;;
20101;SDS011;10210;52.284;9.892;2023-02-22T05:13:06;25.87;;;11.53;;
20101;SDS011;10210;52.284;9.892;2023-02-22T05:15:33;24.87;;;10.17;;
20101;SDS011;10210;52.284;9.892;2023-02-22T05:17:58;25.47;;;11.33;;
20101;SDS011;10210;52.284;9.892;2023-02-22T05:20:29;25.70;;;11.20;;
20101;SDS011;10210;52.284;9.892;2023-02-22T05:22:58;26.37;;;11.00;;
20101;SDS011;10210;52.284;9.892;2023-02-22T05:25:27;25.93;;;11.13;;
20101;SDS011;10210;52.284;9.892;2023-02-22T05:27:54;25.40;;;11.20;;
20101;SDS011;10210;52.284;9.892;2023-02-22T05:30:24;24.10;;;11.23;;
20101;SDS011;10210;52.284;9.892;2023-02-22T05:32:52;23.97;;;11.03;;
20101;SDS011;10210;52.284;9.892;2023-02-22T05:35:19;25.03;;;10.67;;
20101;SDS011;10210;52.284;9.892;2023-02-22T05:37:46;24.07;;;10.43;;
20101;SDS011;10210;52.284;9.892;2023-02-22T05:40:12;23.17;;;9.77;;
20101;SDS011;10210;52.284;9.892;2023-02-22T05:42:39;22.77;;;10.90;;
20101;SDS011;10210;52.284;9.892;2023-02-22T05:45:06;22.77;;;10.40;;
20101;SDS011;10210;52.284;9.892;2023-02-22T05:47:33;25.73;;;10.83;;
20101;SDS011;10210;52.284;9.892;2023-02-22T05:49:58;25.37;;;11.43;;
20101;SDS011;10210;52.284;9.892;2023-02-22T05:52:25;26.07;;;11.80;;
20101;SDS011;10210;52.284;9.892;2023-02-22T05:54:51;24.73;;;11.00;;
20101;SDS011;10210;52.284;9.892;2023-02-22T05:57:16;24.43;;;10.57;;
20101;SDS011;10210;52.284;9.892;2023-02-22T05:59:42;24.13;;;10.20;;
20101;SDS011;10210;52.284;9.892;2023-02-22T06:02:08;23.93;;;11.17;;
20101;SDS011;10210;52.284;9.892;2023-02-22T06:04:34;24.33;;;11.17;;
20101;SDS011;10210;52.284;9.892;2023-02-22T06:06:59;24.97;;;11.10;;
20101;SDS011;10210;52.284;9.892;2023-02-22T06:09:25;24.37;;;10.80;;
20101;SDS011;10210;52.284;9.892;2023-02-22T06:11:50;24.23;;;10.77;;
20101;SDS011;10210;52.284;9.892;2023-02-22T06:14:16;24.23;;;10.50;;
20101;SDS011;10210;52.284;9.892;2023-02-22T06:16:42;22.63;;;10.27;;
20101;SDS011;10210;52.284;9.892;2023-02-22T06:19:07;25.70;;;11.60;;
20101;SDS011;10210;52.284;9.892;2023-02-22T06:21:33;23.87;;;10.70;;
20101;SDS011;10210;52.284;9.892;2023-02-22T06:24:00;24.20;;;11.07;;
20101;SDS011;10210;52.284;9.892;2023-02-22T06:26:28;26.37;;;12.27;;
20101;SDS011;10210;52.284;9.892;2023-02-22T06:28:53;26.60;;;12.20;;
20101;SDS011;10210;52.284;9.892;2023-02-22T06:31:19;26.27;;;10.73;;
20101;SDS011;10210;52.284;9.892;2023-02-22T06:33:45;24.80;;;11.00;;
20101;SDS011;10210;52.284;9.892;2023-02-22T06:36:11;24.23;;;11.20;;
20101;SDS011;10210;52.284;9.892;2023-02-22T06:38:36;24.97;;;11.57;;
20101;SDS011;10210;52.284;9.892;2023-02-22T06:41:02;24.83;;;11.23;;
20101;SDS011;10210;52.284;9.892;2023-02-22T06:43:28;26.87;;;11.77;;
20101;SDS011;10210;52.284;9.892;2023-02-22T06:45:53;26.20;;;11.97;;
20101;SDS011;10210;52.284;9.892;2023-02-22T06:48:19;26.80;;;11.63;;
20101;SDS011;10210;52.284;9.892;2023-02-22T06:50:45;27.27;;;11.53;;
20101;SDS011;10210;52.284;9.892;2023-02-22T06:53:11;29.30;;;11.90;;
20101;SDS011;10210;52.284;9.892;2023-02-22T06:55:36;25.10;;;11.47;;
20101;SDS011;10210;52.284;9.892;2023-02-22T06:58:05;24.80;;;11.57;;
20101;SDS011;10210;52.284;9.892;2023-02-22T07:00:30;24.43;;;11.13;;
20101;SDS011;10210;52.284;9.892;2023-02-22T07:02:57;21.93;;;10.37;;
20101;SDS011;10210;52.284;9.892;2023-02-22T07:05:24;23.07;;;10.20;;
20101;SDS011;10210;52.284;9.892;2023-02-22T07:07:51;24.47;;;10.00;;
20101;SDS011;10210;52.284;9.892;2023-02-22T07:10:21;24.63;;;11.27;;
20101;SDS011;10210;52.284;9.892;2023-02-22T07:12:50;21.87;;;9.70;;
20101;SDS011;10210;52.284;9.892;2023-02-22T07:15:16;24.40;;;11.13;;
20101;SDS011;10210;52.284;9.892;2023-02-22T07:17:47;21.40;;;9.83;;
20101;SDS011;10210;52.284;9.892;2023-02-22T07:20:14;22.63;;;9.83;;
20101;SDS011;10210;52.284;9.892;2023-02-22T07:22:41;24.53;;;10.90;;
20101;SDS011;10210;52.284;9.892;2023-02-22T07:25:07;20.70;;;8.77;;
20101;SDS011;10210;52.284;9.892;2023-02-22T07:27:35;24.07;;;10.07;;
20101;SDS011;10210;52.284;9.892;2023-02-22T07:30:06;23.73;;;9.93;;
20101;SDS011;10210;52.284;9.892;2023-02-22T07:32:43;22.13;;;9.77;;
20101;SDS011;10210;52.284;9.892;2023-02-22T07:35:13;23.17;;;10.37;;
20101;SDS011;10210;52.284;9.892;2023-02-22T07:37:44;23.20;;;9.47;;
20101;SDS011;10210;52.284;9.892;2023-02-22T07:40:11;23.57;;;10.00;;
20101;SDS011;10210;52.284;9.892;2023-02-22T07:42:55;21.83;;;9.63;;
20101;SDS011;10210;52.284;9.892;2023-02-22T07:45:29;20.93;;;8.83;;
20101;SDS011;10210;52.284;9.892;2023-02-22T07:47:57;21.07;;;9.43;;
20101;SDS011;10210;52.284;9.892;2023-02-22T07:50:25;25.27;;;10.33;;
20101;SDS011;10210;52.284;9.892;2023-02-22T07:52:55;23.93;;;10.10;;
20101;SDS011;10210;52.284;9.892;2023-02-22T07:55:26;22.50;;;10.20;;
20101;SDS011;10210;52.284;9.892;2023-02-22T07:57:55;22.23;;;9.90;;
20101;SDS011;10210;52.284;9.892;2023-02-22T08:00:25;23.43;;;9.93;;
20101;SDS011;10210;52.284;9.892;2023-02-22T08:02:54;23.70;;;10.47;;
20101;SDS011;10210;52.284;9.892;2023-02-22T08:05:22;22.80;;;9.63;;
20101;SDS011;10210;52.284;9.892;2023-02-22T08:07:50;22.83;;;10.17;;
20101;SDS011;10210;52.284;9.892;2023-02-22T08:10:17;24.30;;;9.90;;
20101;SDS011;10210;52.284;9.892;2023-02-22T08:12:44;21.63;;;10.17;;
20101;SDS011;10210;52.284;9.892;2023-02-22T08:15:43;24.30;;;10.97;;
20101;SDS011;10210;52.284;9.892;2023-02-22T08:18:05;24.63;;;10.57;;
20101;SDS011;10210;52.284;9.892;2023-02-22T08:20:34;24.67;;;10.67;;
20101;SDS011;10210;52.284;9.892;2023-02-22T08:23:03;27.80;;;11.17;;
20101;SDS011;10210;52.284;9.892;2023-02-22T08:25:31;23.07;;;10.93;;
20101;SDS011;10210;52.284;9.892;2023-02-22T08:27:58;27.90;;;10.23;;
20101;SDS011;10210;52.284;9.892;2023-02-22T08:30:30;24.27;;;11.20;;
20101;SDS011;10210;52.284;9.892;2023-02-22T08:33:00;26.20;;;12.57;;
20101;SDS011;10210;52.284;9.892;2023-02-22T08:35:26;24.87;;;11.80;;
20101;SDS011;10210;52.284;9.892;2023-02-22T08:37:55;24.23;;;11.40;;
20101;SDS011;10210;52.284;9.892;2023-02-22T08:40:25;24.47;;;10.90;;
20101;SDS011;10210;52.284;9.892;2023-02-22T08:43:00;25.63;;;11.57;;
20101;SDS011;10210;52.284;9.892;2023-02-22T08:45:26;24.80;;;12.03;;
20101;SDS011;10210;52.284;9.892;2023-02-22T08:47:52;25.73;;;11.67;;
20101;SDS011;10210;52.284;9.892;2023-02-22T08:52:50;24.93;;;10.90;;
20101;SDS011;10210;52.284;9.892;2023-02-22T08:55:21;24.50;;;11.10;;
20101;SDS011;10210;52.284;9.892;2023-02-22T08:57:50;25.13;;;11.70;;
20101;SDS011;10210;52.284;9.892;2023-02-22T09:00:19;25.97;;;13.47;;
20101;SDS011;10210;52.284;9.892;2023-02-22T09:02:49;27.57;;;13.27;;
20101;SDS011;10210;52.284;9.892;2023-02-22T09:05:16;27.67;;;14.13;;
20101;SDS011;10210;52.284;9.892;2023-02-22T09:07:42;23.93;;;12.20;;
20101;SDS011;10210;52.284;9.892;2023-02-22T09:10:15;26.83;;;13.73;;
20101;SDS011;10210;52.284;9.892;2023-02-22T09:12:48;24.37;;;12.93;;
20101;SDS011;10210;52.284;9.892;2023-02-22T09:15:19;26.73;;;13.10;;
20101;SDS011;10210;52.284;9.892;2023-02-22T09:17:46;25.37;;;13.13;;
20101;SDS011;10210;52.284;9.892;2023-02-22T09:20:12;28.77;;;13.73;;
20101;SDS011;10210;52.284;9.892;2023-02-22T09:22:42;24.50;;;13.07;;
20101;SDS011;10210;52.284;9.892;2023-02-22T09:25:11;24.53;;;13.07;;
20101;SDS011;10210;52.284;9.892;2023-02-22T09:27:37;25.83;;;12.30;;
20101;SDS011;10210;52.284;9.892;2023-02-22T09:30:04;22.97;;;11.70;;
20101;SDS011;10210;52.284;9.892;2023-02-22T09:32:35;25.53;;;12.27;;
20101;SDS011;10210;52.284;9.892;2023-02-22T09:35:01;25.60;;;13.37;;
20101;SDS011;10210;52.284;9.892;2023-02-22T09:37:26;25.00;;;12.20;;
20101;SDS011;10210;52.284;9.892;2023-02-22T09:39:52;26.57;;;13.03;;
20101;SDS011;10210;52.284;9.892;2023-02-22T09:42:32;24.77;;;13.00;;
20101;SDS011;10210;52.284;9.892;2023-02-22T09:45:31;23.70;;;12.83;;
20101;SDS011;10210;52.284;9.892;2023-02-22T09:48:02;23.97;;;12.03;;
20101;SDS011;10210;52.284;9.892;2023-02-22T09:50:33;25.60;;;12.67;;
20101;SDS011;10210;52.284;9.892;2023-02-22T09:53:25;22.73;;;11.50;;
20101;SDS011;10210;52.284;9.892;2023-02-22T09:56:06;23.73;;;11.70;;
20101;SDS011;10210;52.284;9.892;2023-02-22T09:58:37;26.70;;;13.07;;
20101;SDS011;10210;52.284;9.892;2023-02-22T10:07:03;24.73;;;12.23;;
20101;SDS011;10210;52.284;9.892;2023-02-22T10:09:30;24.17;;;11.67;;
20101;SDS011;10210;52.284;9.892;2023-02-22T10:12:08;25.57;;;12.60;;
20101;SDS011;10210;52.284;9.892;2023-02-22T10:28:54;21.43;;;11.20;;
20101;SDS011;10210;52.284;9.892;2023-02-22T10:31:29;25.80;;;12.77;;
20101;SDS011;10210;52.284;9.892;2023-02-22T10:34:11;23.03;;;12.03;;
20101;SDS011;10210;52.284;9.892;2023-02-22T10:36:42;23.73;;;12.90;;
20101;SDS011;10210;52.284;9.892;2023-02-22T10:42:07;25.93;;;13.17;;
20101;SDS011;10210;52.284;9.892;2023-02-22T10:44:34;25.17;;;12.97;;
20101;SDS011;10210;52.284;9.892;2023-02-22T10:47:02;25.60;;;13.47;;
20101;SDS011;10210;52.284;9.892;2023-02-22T10:49:36;24.83;;;12.90;;
20101;SDS011;10210;52.284;9.892;2023-02-22T10:52:30;25.57;;;12.57;;
20101;SDS011;10210;52.284;9.892;2023-02-22T10:55:02;22.13;;;12.77;;
20101;SDS011;10210;52.284;9.892;2023-02-22T10:57:31;22.83;;;12.07;;
20101;SDS011;10210;52.284;9.892;2023-02-22T11:00:21;22.77;;;11.77;;
20101;SDS011;10210;52.284;9.892;2023-02-22T11:02:55;22.80;;;11.57;;
20101;SDS011;10210;52.284;9.892;2023-02-22T11:05:28;24.93;;;13.77;;
20101;SDS011;10210;52.284;9.892;2023-02-22T11:08:12;23.50;;;12.17;;
20101;SDS011;10210;52.284;9.892;2023-02-22T11:10:49;22.87;;;13.00;;
20101;SDS011;10210;52.284;9.892;2023-02-22T11:16:15;24.90;;;12.87;;
20101;SDS011;10210;52.284;9.892;2023-02-22T11:21:45;23.70;;;12.43;;
20101;SDS011;10210;52.284;9.892;2023-02-22T11:24:15;24.67;;;12.13;;
20101;SDS011;10210;52.284;9.892;2023-02-22T11:26:48;22.53;;;12.03;;
20101;SDS011;10210;52.284;9.892;2023-02-22T11:29:22;24.33;;;12.67;;
20101;SDS011;10210;52.284;9.892;2023-02-22T11:31:56;23.40;;;11.77;;
20101;SDS011;10210;52.284;9.892;2023-02-22T11:34:31;22.77;;;12.17;;
20101;SDS011;10210;52.284;9.892;2023-02-22T11:37:16;25.57;;;13.17;;
20101;SDS011;10210;52.284;9.892;2023-02-22T11:40:04;22.50;;;12.27;;
20101;SDS011;10210;52.284;9.892;2023-02-22T11:42:47;23.40;;;12.17;;
20101;SDS011;10210;52.284;9.892;2023-02-22T11:45:29;21.37;;;11.67;;
20101;SDS011;10210;52.284;9.892;2023-02-22T11:47:57;21.63;;;11.80;;
20101;SDS011;10210;52.284;9.892;2023-02-22T11:58:55;22.40;;;10.50;;
20101;SDS011;10210;52.284;9.892;2023-02-22T12:04:54;19.97;;;9.93;;
20101;SDS011;10210;52.284;9.892;2023-02-22T12:13:18;19.77;;;9.33;;
20101;SDS011;10210;52.284;9.892;2023-02-22T12:16:16;16.90;;;8.67;;
20101;SDS011;10210;52.284;9.892;2023-02-22T12:19:14;17.33;;;8.60;;
20101;SDS011;10210;52.284;9.892;2023-02-22T12:21:54;18.73;;;8.33;;
20101;SDS011;10210;52.284;9.892;2023-02-22T12:25:15;20.03;;;8.00;;
20101;SDS011;10210;52.284;9.892;2023-02-22T12:27:29;17.83;;;8.33;;
20101;SDS011;10210;52.284;9.892;2023-02-22T12:30:10;17.63;;;7.77;;
20101;SDS011;10210;52.284;9.892;2023-02-22T12:32:53;18.23;;;7.70;;
20101;SDS011;10210;52.284;9.892;2023-02-22T12:35:27;16.37;;;7.63;;
20101;SDS011;10210;52.284;9.892;2023-02-22T12:38:05;19.00;;;8.13;;
20101;SDS011;10210;52.284;9.892;2023-02-22T12:41:08;17.10;;;8.13;;
20101;SDS011;10210;52.284;9.892;2023-02-22T12:46:30;17.07;;;7.33;;
20101;SDS011;10210;52.284;9.892;2023-02-22T12:55:16;17.37;;;8.30;;
20101;SDS011;10210;52.284;9.892;2023-02-22T12:58:14;19.10;;;8.50;;
20101;SDS011;10210;52.284;9.892;2023-02-22T13:01:01;17.83;;;8.40;;
20101;SDS011;10210;52.284;9.892;2023-02-22T13:03:42;17.77;;;8.37;;
20101;SDS011;10210;52.284;9.892;2023-02-22T13:11:58;18.03;;;8.10;;
20101;SDS011;10210;52.284;9.892;2023-02-22T13:14:59;17.17;;;8.33;;
20101;SDS011;10210;52.284;9.892;2023-02-22T13:18:00;18.83;;;8.97;;
20101;SDS011;10210;52.284;9.892;2023-02-22T13:20:53;19.00;;;8.90;;
20101;SDS011;10210;52.284;9.892;2023-02-22T13:23:52;17.00;;;7.70;;
20101;SDS011;10210;52.284;9.892;2023-02-22T13:26:42;18.53;;;8.23;;
20101;SDS011;10210;52.284;9.892;2023-02-22T13:29:16;19.93;;;8.87;;
20101;SDS011;10210;52.284;9.892;2023-02-22T13:31:59;20.13;;;9.20;;
20101;SDS011;10210;52.284;9.892;2023-02-22T13:34:52;19.20;;;8.73;;
20101;SDS011;10210;52.284;9.892;2023-02-22T13:46:47;17.40;;;8.23;;
20101;SDS011;10210;52.284;9.892;2023-02-22T13:50:14;17.83;;;8.70;;
20101;SDS011;10210;52.284;9.892;2023-02-22T13:53:08;16.67;;;7.70;;
20101;SDS011;10210;52.284;9.892;2023-02-22T13:55:51;16.47;;;7.00;;
20101;SDS011;10210;52.284;9.892;2023-02-22T13:58:22;14.97;;;6.60;;
20101;SDS011;10210;52.284;9.892;2023-02-22T14:00:52;15.40;;;6.17;;
20101;SDS011;10210;52.284;9.892;2023-02-22T14:03:28;15.47;;;6.23;;
20101;SDS011;10210;52.284;9.892;2023-02-22T14:06:04;14.70;;;6.33;;
20101;SDS011;10210;52.284;9.892;2023-02-22T14:11:04;13.43;;;5.30;;
20101;SDS011;10210;52.284;9.892;2023-02-22T14:16:20;12.17;;;5.17;;
20101;SDS011;10210;52.284;9.892;2023-02-22T14:19:09;12.93;;;5.50;;
20101;SDS011;10210;52.284;9.892;2023-02-22T14:21:54;13.23;;;5.67;;
20101;SDS011;10210;52.284;9.892;2023-02-22T14:24:26;14.63;;;5.93;;
20101;SDS011;10210;52.284;9.892;2023-02-22T14:29:27;14.13;;;5.13;;
20101;SDS011;10210;52.284;9.892;2023-02-22T14:32:04;13.63;;;5.20;;
20101;SDS011;10210;52.284;9.892;2023-02-22T14:34:38;13.13;;;5.47;;
20101;SDS011;10210;52.284;9.892;2023-02-22T14:37:11;14.67;;;5.40;;
20101;SDS011;10210;52.284;9.892;2023-02-22T14:39:49;13.30;;;5.07;;
20101;SDS011;10210;52.284;9.892;2023-02-22T14:42:36;12.47;;;4.93;;
20101;SDS011;10210;52.284;9.892;2023-02-22T14:47:45;13.13;;;5.10;;
20101;SDS011;10210;52.284;9.892;2023-02-22T14:51:14;12.80;;;4.97;;
20101;SDS011;10210;52.284;9.892;2023-02-22T14:56:21;12.60;;;4.80;;
20101;SDS011;10210;52.284;9.892;2023-02-22T15:01:27;12.87;;;5.20;;
20101;SDS011;10210;52.284;9.892;2023-02-22T15:06:52;13.53;;;4.93;;
20101;SDS011;10210;52.284;9.892;2023-02-22T15:09:22;14.70;;;4.97;;
20101;SDS011;10210;52.284;9.892;2023-02-22T15:14:32;11.80;;;4.57;;
20101;SDS011;10210;52.284;9.892;2023-02-22T15:17:02;12.13;;;4.43;;
20101;SDS011;10210;52.284;9.892;2023-02-22T15:19:45;13.87;;;5.63;;
20101;SDS011;10210;52.284;9.892;2023-02-22T15:22:20;12.63;;;4.60;;
20101;SDS011;10210;52.284;9.892;2023-02-22T15:25:00;13.13;;;4.80;;
20101;SDS011;10210;52.284;9.892;2023-02-22T15:27:29;12.90;;;5.03;;
20101;SDS011;10210;52.284;9.892;2023-02-22T15:30:00;12.67;;;4.80;;
20101;SDS011;10210;52.284;9.892;2023-02-22T15:32:51;13.03;;;4.37;;
20101;SDS011;10210;52.284;9.892;2023-02-22T15:38:02;11.67;;;4.50;;
20101;SDS011;10210;52.284;9.892;2023-02-22T15:40:37;12.23;;;4.47;;
20101;SDS011;10210;52.284;9.892;2023-02-22T15:43:07;12.17;;;4.70;;
20101;SDS011;10210;52.284;9.892;2023-02-22T15:45:48;11.60;;;4.50;;
20101;SDS011;10210;52.284;9.892;2023-02-22T15:48:17;12.07;;;4.60;;
20101;SDS011;10210;52.284;9.892;2023-02-22T15:51:17;11.40;;;4.63;;
20101;SDS011;10210;52.284;9.892;2023-02-22T15:53:39;12.80;;;5.10;;
20101;SDS011;10210;52.284;9.892;2023-02-22T15:56:12;11.90;;;4.73;;
20101;SDS011;10210;52.284;9.892;2023-02-22T15:58:50;12.40;;;4.93;;
20101;SDS011;10210;52.284;9.892;2023-02-22T16:01:24;13.53;;;5.13;;
20101;SDS011;10210;52.284;9.892;2023-02-22T16:03:52;12.93;;;5.13;;
20101;SDS011;10210;52.284;9.892;2023-02-22T16:06:32;12.57;;;5.30;;
20101;SDS011;10210;52.284;9.892;2023-02-22T16:09:00;12.57;;;5.00;;
20101;SDS011;10210;52.284;9.892;2023-02-22T16:11:50;12.87;;;5.27;;
20101;SDS011;10210;52.284;9.892;2023-02-22T16:14:46;12.57;;;4.73;;
20101;SDS011;10210;52.284;9.892;2023-02-22T16:22:46;10.53;;;4.23;;
20101;SDS011;10210;52.284;9.892;2023-02-22T16:27:52;11.30;;;4.23;;
20101;SDS011;10210;52.284;9.892;2023-02-22T16:30:25;13.00;;;5.13;;
20101;SDS011;10210;52.284;9.892;2023-02-22T16:32:56;11.37;;;4.80;;
20101;SDS011;10210;52.284;9.892;2023-02-22T16:35:26;12.37;;;4.80;;
20101;SDS011;10210;52.284;9.892;2023-02-22T16:37:57;11.67;;;4.63;;
20101;SDS011;10210;52.284;9.892;2023-02-22T16:40:27;13.00;;;4.80;;
20101;SDS011;10210;52.284;9.892;2023-02-22T16:43:02;13.13;;;5.53;;
20101;SDS011;10210;52.284;9.892;2023-02-22T16:45:41;13.43;;;6.00;;
20101;SDS011;10210;52.284;9.892;2023-02-22T16:48:14;12.30;;;5.27;;
20101;SDS011;10210;52.284;9.892;2023-02-22T16:50:47;14.73;;;6.27;;
20101;SDS011;10210;52.284;9.892;2023-02-22T16:53:15;12.37;;;5.30;;
20101;SDS011;10210;52.284;9.892;2023-02-22T16:55:44;11.87;;;5.17;;
20101;SDS011;10210;52.284;9.892;2023-02-22T16:58:11;16.10;;;5.85;;
20101;SDS011;10210;52.284;9.892;2023-02-22T17:00:40;12.57;;;5.50;;
20101;SDS011;10210;52.284;9.892;2023-02-22T17:03:08;14.03;;;5.40;;
20101;SDS011;10210;52.284;9.892;2023-02-22T17:05:40;13.57;;;5.33;;